Time,TemperatureF,DewpointF,PressureIn,WindDirection,WindDirectionDegrees,WindSpeedMPH,WindSpeedGustMPH,Humidity,HourlyPrecipIn,Conditions,Clouds,dailyrainin,SoftwareType,DateUTC
2013-03-14 00:06:00,36.2,19.0,30.19,North,360,5.0,14.0,49,0.00,,,0.00,weatherlink.com 1.10,2013-03-14 02:06:00,
2013-03-14 00:37:00,35.4,18.0,30.19,North,355,2.0,8.0,49,0.00,,,0.00,weatherlink.com 1.10,2013-03-14 02:37:00,
2013-03-14 00:52:00,35.0,18.0,30.20,NNW,338,3.0,15.0,49,0.00,,,0.00,weatherlink.com 1.10,2013-03-14 02:52:00,
2013-03-14 01:24:00,34.8,18.0,30.19,NW,325,11.0,24.0,49,0.00,,,0.00,weatherlink.com 1.10,2013-03-14 03:24:00,
2013-03-14 01:39:00,34.4,18.0,30.19,WNW,302,15.0,24.0,50,0.00,,,0.00,weatherlink.com 1.10,2013-03-14 03:39:00,
2013-03-14 01:54:00,34.4,18.0,30.19,WNW,300,21.0,25.0,51,0.00,,,0.00,weatherlink.com 1.10,2013-03-14 03:54:00,
2013-03-14 02:09:00,33.9,18.0,30.20,NNW,337,7.0,18.0,52,0.00,,,0.00,weatherlink.com 1.10,2013-03-14 04:09:00,
2013-03-14 02:25:00,33.8,18.0,30.20,NW,308,17.0,20.0,52,0.00,,,0.00,weatherlink.com 1.10,2013-03-14 04:25:00,
2013-03-14 02:41:00,33.6,18.0,30.20,NNW,331,5.0,18.0,52,0.00,,,0.00,weatherlink.com 1.10,2013-03-14 04:41:00,
2013-03-14 02:56:00,33.2,17.0,30.21,NNW,342,9.0,15.0,52,0.00,,,0.00,weatherlink.com 1.10,2013-03-14 04:56:00,
2013-03-14 03:12:00,32.9,18.0,30.21,WNW,298,9.0,15.0,53,0.00,,,0.00,weatherlink.com 1.10,2013-03-14 05:12:00,
2013-03-14 03:27:00,33.1,17.0,30.22,NW,322,10.0,18.0,52,0.00,,,0.00,weatherlink.com 1.10,2013-03-14 05:27:00,
2013-03-14 03:43:00,32.6,17.0,30.22,NW,315,11.0,15.0,52,0.00,,,0.00,weatherlink.com 1.10,2013-03-14 05:43:00,
2013-03-14 03:58:00,32.4,17.0,30.21,NW,313,8.0,13.0,53,0.00,,,0.00,weatherlink.com 1.10,2013-03-14 05:58:00,
2013-03-14 04:13:00,32.1,17.0,30.22,NW,304,7.0,15.0,54,0.00,,,0.00,weatherlink.com 1.10,2013-03-14 06:13:00,
2013-03-14 04:29:00,31.7,17.0,30.22,NNW,329,3.0,10.0,54,0.00,,,0.00,weatherlink.com 1.10,2013-03-14 06:29:00,
2013-03-14 04:45:00,31.3,17.0,30.23,NNW,333,7.0,11.0,55,0.00,,,0.00,weatherlink.com 1.10,2013-03-14 06:45:00,
2013-03-14 05:00:00,31.1,17.0,30.23,NW,323,5.0,9.0,56,0.00,,,0.00,weatherlink.com 1.10,2013-03-14 07:00:00,
2013-03-14 05:16:00,30.5,17.0,30.23,NW,322,3.0,7.0,57,0.00,,,0.00,weatherlink.com 1.10,2013-03-14 07:16:00,
2013-03-14 05:31:00,30.1,17.0,30.23,NW,320,3.0,5.0,57,0.00,,,0.00,weatherlink.com 1.10,2013-03-14 07:31:00,
2013-03-14 05:46:00,29.7,17.0,30.23,NW,304,3.0,4.0,59,0.00,,,0.00,weatherlink.com 1.10,2013-03-14 07:46:00,
2013-03-14 06:02:00,29.4,17.0,30.23,WNW,298,3.0,5.0,59,0.00,,,0.00,weatherlink.com 1.10,2013-03-14 08:02:00,
2013-03-14 06:17:00,29.5,17.0,30.23,WNW,298,3.0,4.0,58,0.00,,,0.00,weatherlink.com 1.10,2013-03-14 08:17:00,
2013-03-14 06:33:00,29.4,16.0,30.24,NW,317,2.0,5.0,58,0.00,,,0.00,weatherlink.com 1.10,2013-03-14 08:33:00,
2013-03-14 06:49:00,28.8,17.0,30.24,NW,317,2.0,4.0,60,0.00,,,0.00,weatherlink.com 1.10,2013-03-14 08:49:00,
2013-03-14 07:04:00,28.8,17.0,30.25,WNW,298,5.0,7.0,60,0.00,,,0.00,weatherlink.com 1.10,2013-03-14 09:04:00,
2013-03-14 07:20:00,29.0,16.0,30.25,WNW,301,4.0,8.0,59,0.00,,,0.00,weatherlink.com 1.10,2013-03-14 09:20:00,
2013-03-14 07:35:00,28.0,16.0,30.25,WNW,297,3.0,7.0,61,0.00,,,0.00,weatherlink.com 1.10,2013-03-14 09:35:00,
2013-03-14 07:50:00,28.7,17.0,30.25,NW,306,7.0,12.0,60,0.00,,,0.00,weatherlink.com 1.10,2013-03-14 09:50:00,
2013-03-14 08:22:00,29.0,17.0,30.27,NNW,329,2.0,6.0,60,0.00,,,0.00,weatherlink.com 1.10,2013-03-14 10:22:00,
2013-03-14 08:37:00,29.1,17.0,30.27,NW,305,2.0,11.0,61,0.00,,,0.00,weatherlink.com 1.10,2013-03-14 10:37:00,
2013-03-14 08:52:00,29.4,17.0,30.28,NNW,337,4.0,8.0,59,0.00,,,0.00,weatherlink.com 1.10,2013-03-14 10:52:00,
2013-03-14 09:08:00,29.9,16.0,30.29,NW,317,7.0,14.0,57,0.00,,,0.00,weatherlink.com 1.10,2013-03-14 11:08:00,
2013-03-14 09:23:00,29.7,16.0,30.30,NNW,329,4.0,12.0,57,0.00,,,0.00,weatherlink.com 1.10,2013-03-14 11:23:00,
2013-03-14 09:39:00,29.2,16.0,30.29,NNW,336,3.0,7.0,58,0.00,,,0.00,weatherlink.com 1.10,2013-03-14 11:39:00,
2013-03-14 09:54:00,29.1,16.0,30.30,NW,310,0.0,4.0,58,0.00,,,0.00,weatherlink.com 1.10,2013-03-14 11:54:00,
2013-03-14 10:09:00,29.0,16.0,30.30,WNW,290,8.0,8.0,59,0.00,,,0.00,weatherlink.com 1.10,2013-03-14 12:09:00,
2013-03-14 10:25:00,30.1,17.0,30.31,North,10,0.0,11.0,58,0.00,,,0.00,weatherlink.com 1.10,2013-03-14 12:25:00,
2013-03-14 10:41:00,30.7,18.0,30.32,WNW,297,3.0,9.0,58,0.00,,,0.00,weatherlink.com 1.10,2013-03-14 12:41:00,
2013-03-14 10:56:00,31.0,17.0,30.32,WSW,241,2.0,8.0,56,0.00,,,0.00,weatherlink.com 1.10,2013-03-14 12:56:00,
2013-03-14 11:11:00,32.0,17.0,30.32,West,272,5.0,9.0,53,0.00,,,0.00,weatherlink.com 1.10,2013-03-14 13:11:00,
2013-03-14 11:27:00,32.9,18.0,30.32,WNW,296,8.0,13.0,53,0.00,,,0.00,weatherlink.com 1.10,2013-03-14 13:27:00,
2013-03-14 11:42:00,33.6,17.0,30.32,WNW,300,12.0,15.0,51,0.00,,,0.00,weatherlink.com 1.10,2013-03-14 13:42:00,
2013-03-14 11:57:00,34.4,17.0,30.33,WNW,296,7.0,15.0,48,0.00,,,0.00,weatherlink.com 1.10,2013-03-14 13:57:00,
2013-03-14 12:13:00,34.8,17.0,30.33,WNW,295,9.0,18.0,48,0.00,,,0.00,weatherlink.com 1.10,2013-03-14 14:13:00,
2013-03-14 12:28:00,35.7,16.0,30.32,WNW,287,3.0,14.0,45,0.00,,,0.00,weatherlink.com 1.10,2013-03-14 14:28:00,
2013-03-14 12:44:00,37.4,18.0,30.32,WNW,286,8.0,13.0,46,0.00,,,0.00,weatherlink.com 1.10,2013-03-14 14:44:00,
2013-03-14 12:59:00,37.7,17.0,30.32,NW,321,8.0,14.0,42,0.00,,,0.00,weatherlink.com 1.10,2013-03-14 14:59:00,
2013-03-14 13:14:00,38.7,19.0,30.31,WSW,256,11.0,25.0,44,0.00,,,0.00,weatherlink.com 1.10,2013-03-14 15:14:00,
2013-03-14 13:30:00,39.8,19.0,30.31,NW,314,5.0,16.0,43,0.00,,,0.00,weatherlink.com 1.10,2013-03-14 15:30:00,
2013-03-14 13:45:00,40.2,20.0,30.30,West,273,10.0,14.0,44,0.00,,,0.00,weatherlink.com 1.10,2013-03-14 15:45:00,
2013-03-14 14:01:00,41.7,19.0,30.30,West,268,10.0,14.0,39,0.00,,,0.00,weatherlink.com 1.10,2013-03-14 16:01:00,
2013-03-14 14:17:00,42.6,19.0,30.30,West,260,11.0,18.0,39,0.00,,,0.00,weatherlink.com 1.10,2013-03-14 16:17:00,
2013-03-14 14:32:00,43.5,19.0,30.30,West,277,17.0,17.0,37,0.00,,,0.00,weatherlink.com 1.10,2013-03-14 16:32:00,
2013-03-14 14:47:00,43.5,19.0,30.30,WSW,250,7.0,13.0,37,0.00,,,0.00,weatherlink.com 1.10,2013-03-14 16:47:00,
2013-03-14 15:03:00,43.7,20.0,30.30,WNW,294,9.0,12.0,38,0.00,,,0.00,weatherlink.com 1.10,2013-03-14 17:03:00,
2013-03-14 15:19:00,45.0,20.0,30.30,WNW,284,8.0,14.0,36,0.00,,,0.00,weatherlink.com 1.10,2013-03-14 17:19:00,
2013-03-14 15:34:00,44.5,17.0,30.29,SW,230,7.0,12.0,33,0.00,,,0.00,weatherlink.com 1.10,2013-03-14 17:34:00,
2013-03-14 15:50:00,45.4,18.0,30.28,NW,311,0.0,9.0,33,0.00,,,0.00,weatherlink.com 1.10,2013-03-14 17:50:00,
2013-03-14 16:05:00,46.8,20.0,30.28,NW,323,11.0,12.0,34,0.00,,,0.00,weatherlink.com 1.10,2013-03-14 18:05:00,
2013-03-14 16:21:00,47.1,19.0,30.27,North,360,2.0,9.0,32,0.00,,,0.00,weatherlink.com 1.10,2013-03-14 18:21:00,
2013-03-14 16:36:00,47.8,19.0,30.27,West,278,6.0,16.0,32,0.00,,,0.00,weatherlink.com 1.10,2013-03-14 18:36:00,
2013-03-14 16:51:00,47.7,18.0,30.26,NNW,345,5.0,18.0,31,0.00,,,0.00,weatherlink.com 1.10,2013-03-14 18:51:00,
2013-03-14 17:07:00,48.1,20.0,30.25,WSW,238,7.0,11.0,33,0.00,,,0.00,weatherlink.com 1.10,2013-03-14 19:07:00,
2013-03-14 17:22:00,48.7,18.0,30.24,WNW,302,13.0,13.0,29,0.00,,,0.00,weatherlink.com 1.10,2013-03-14 19:22:00,
2013-03-14 17:38:00,48.4,19.0,30.23,West,271,11.0,12.0,31,0.00,,,0.00,weatherlink.com 1.10,2013-03-14 19:38:00,
2013-03-14 17:53:00,49.2,22.0,30.22,WSW,245,8.0,11.0,34,0.00,,,0.00,weatherlink.com 1.10,2013-03-14 19:53:00,
2013-03-14 18:08:00,49.4,18.0,30.22,NNW,338,4.0,15.0,28,0.00,,,0.00,weatherlink.com 1.10,2013-03-14 20:08:00,
2013-03-14 18:24:00,50.6,22.0,30.21,SSE,165,3.0,7.0,32,0.00,,,0.00,weatherlink.com 1.10,2013-03-14 20:24:00,
2013-03-14 18:39:00,50.8,20.0,30.21,WNW,295,4.0,15.0,29,0.00,,,0.00,weatherlink.com 1.10,2013-03-14 20:39:00,
2013-03-14 18:55:00,50.4,19.0,30.21,NW,309,3.0,11.0,29,0.00,,,0.00,weatherlink.com 1.10,2013-03-14 20:55:00,
2013-03-14 19:10:00,51.1,20.0,30.21,NW,325,10.0,14.0,29,0.00,,,0.00,weatherlink.com 1.10,2013-03-14 21:10:00,
2013-03-14 19:26:00,51.4,19.0,30.21,West,265,10.0,13.0,28,0.00,,,0.00,weatherlink.com 1.10,2013-03-14 21:26:00,
2013-03-14 19:41:00,50.5,18.0,30.20,NNW,330,6.0,10.0,27,0.00,,,0.00,weatherlink.com 1.10,2013-03-14 21:41:00,
2013-03-14 19:57:00,50.5,21.0,30.20,NW,318,7.0,10.0,31,0.00,,,0.00,weatherlink.com 1.10,2013-03-14 21:57:00,
2013-03-14 20:12:00,49.9,18.0,30.20,NNW,346,7.0,14.0,28,0.00,,,0.00,weatherlink.com 1.10,2013-03-14 22:12:00,
2013-03-14 20:27:00,49.2,19.0,30.20,North,355,3.0,9.0,30,0.00,,,0.00,weatherlink.com 1.10,2013-03-14 22:27:00,
2013-03-14 20:43:00,48.7,19.0,30.20,NNW,336,4.0,11.0,30,0.00,,,0.00,weatherlink.com 1.10,2013-03-14 22:43:00,
2013-03-14 20:58:00,47.9,18.0,30.20,NNW,336,3.0,11.0,30,0.00,,,0.00,weatherlink.com 1.10,2013-03-14 22:58:00,
2013-03-14 21:13:00,46.7,18.0,30.20,NW,309,5.0,12.0,31,0.00,,,0.00,weatherlink.com 1.10,2013-03-14 23:13:00,
2013-03-14 21:29:00,45.4,19.0,30.21,North,355,4.0,9.0,34,0.00,,,0.00,weatherlink.com 1.10,2013-03-14 23:29:00,
2013-03-14 21:44:00,44.3,18.0,30.21,North,349,1.0,7.0,35,0.00,,,0.00,weatherlink.com 1.10,2013-03-14 23:44:00,
2013-03-14 22:00:00,43.6,19.0,30.21,NNW,342,4.0,4.0,37,0.00,,,0.00,weatherlink.com 1.10,2013-03-15 00:00:00,
2013-03-14 22:15:00,42.8,19.0,30.22,North,10,0.0,6.0,38,0.00,,,0.00,weatherlink.com 1.10,2013-03-15 00:15:00,
2013-03-14 22:31:00,42.3,20.0,30.22,North,350,3.0,8.0,40,0.00,,,0.00,weatherlink.com 1.10,2013-03-15 00:31:00,
2013-03-14 22:46:00,41.7,19.0,30.22,North,355,1.0,5.0,39,0.00,,,0.00,weatherlink.com 1.10,2013-03-15 00:46:00,
2013-03-14 23:01:00,41.5,20.0,30.22,North,360,1.0,8.0,41,0.00,,,0.00,weatherlink.com 1.10,2013-03-15 01:01:00,
2013-03-14 23:32:00,41.0,20.0,30.22,NW,313,5.0,9.0,42,0.00,,,0.00,weatherlink.com 1.10,2013-03-15 01:32:00,
2013-03-14 23:49:00,40.8,20.0,30.23,NW,314,8.0,9.0,43,0.00,,,0.00,weatherlink.com 1.10,2013-03-15 01:49:00,